createdAt,value
2022-08-19T00:01:52.797Z,1.50
2022-08-19T00:04:23.960Z,1.23
2022-08-19T00:06:52.616Z,1.42
2022-08-19T00:09:24.115Z,1.48
2022-08-19T00:11:53.300Z,1.50
2022-08-19T00:14:22.856Z,1.15
2022-08-19T00:16:52.471Z,1.77
2022-08-19T00:19:20.664Z,1.38
2022-08-19T00:21:48.862Z,1.30
2022-08-19T00:24:17.741Z,1.30
2022-08-19T00:26:47.655Z,1.35
2022-08-19T00:29:19.904Z,1.60
2022-08-19T00:31:50.714Z,1.20
2022-08-19T00:34:19.033Z,1.42
2022-08-19T00:36:47.784Z,1.40
2022-08-19T00:39:17.410Z,1.40
2022-08-19T00:41:49.851Z,1.40
2022-08-19T00:44:26.687Z,1.50
2022-08-19T00:46:58.387Z,1.63
2022-08-19T00:49:33.705Z,1.60
2022-08-19T00:52:06.368Z,1.35
2022-08-19T00:54:35.127Z,1.50
2022-08-19T00:57:08.951Z,1.48
2022-08-19T01:00:00.807Z,1.35
2022-08-19T01:02:28.002Z,1.65
2022-08-19T01:04:56.661Z,1.58
2022-08-19T01:07:25.036Z,1.30
2022-08-19T01:09:53.558Z,1.60
2022-08-19T01:12:23.553Z,1.40
2022-08-19T01:14:54.379Z,1.53
2022-08-19T01:17:23.107Z,1.45
2022-08-19T01:19:51.365Z,1.40
2022-08-19T01:22:33.412Z,1.25
2022-08-19T01:25:02.432Z,1.30
2022-08-19T01:27:43.112Z,1.23
2022-08-19T01:30:14.077Z,1.55
2022-08-19T01:32:42.346Z,1.40
2022-08-19T01:35:12.814Z,1.58
2022-08-19T01:37:52.162Z,1.33
2022-08-19T01:40:22.225Z,1.52
2022-08-19T01:42:50.679Z,1.42
2022-08-19T01:45:19.451Z,1.63
2022-08-19T01:47:57.641Z,1.40
2022-08-19T01:50:31.836Z,1.40
2022-08-19T01:53:06.379Z,1.40
2022-08-19T01:55:40.560Z,1.48
2022-08-19T01:58:12.923Z,1.15
2022-08-19T02:00:41.506Z,1.75
2022-08-19T02:03:10.229Z,1.60
2022-08-19T02:05:38.643Z,1.33
2022-08-19T02:08:09.304Z,1.40
2022-08-19T02:13:08.179Z,1.50
2022-08-19T02:15:36.353Z,1.40
2022-08-19T02:18:04.514Z,1.48
2022-08-19T02:20:32.722Z,1.60
2022-08-19T02:23:02.273Z,1.50
2022-08-19T02:25:31.812Z,1.50
2022-08-19T02:27:59.965Z,1.75
2022-08-19T02:30:28.891Z,1.50
2022-08-19T02:32:57.226Z,1.50
2022-08-19T02:35:25.906Z,1.70
2022-08-19T02:38:11.402Z,1.40
2022-08-19T02:40:40.921Z,1.40
2022-08-19T02:43:10.656Z,1.50
2022-08-19T02:45:41.546Z,2.03
2022-08-19T02:48:21.610Z,1.40
2022-08-19T02:50:56.249Z,1.45
2022-08-19T02:53:26.049Z,1.40
2022-08-19T02:55:55.664Z,1.40
2022-08-19T02:58:25.338Z,1.33
2022-08-19T03:00:56.172Z,1.35
2022-08-19T03:03:24.635Z,1.60
2022-08-19T03:05:56.995Z,1.50
2022-08-19T03:08:26.861Z,1.30
2022-08-19T03:10:56.610Z,1.30
2022-08-19T03:13:25.321Z,1.40
2022-08-19T03:15:53.587Z,1.20
2022-08-19T03:18:23.251Z,1.38
2022-08-19T03:20:53.841Z,1.20
2022-08-19T03:23:22.552Z,1.08
2022-08-19T03:25:58.394Z,1.40
2022-08-19T03:28:41.953Z,1.20
2022-08-19T03:31:42.099Z,1.40
2022-08-19T03:34:05.012Z,1.40
2022-08-19T03:36:36.313Z,1.60
2022-08-19T03:39:04.838Z,1.65
2022-08-19T03:41:45.116Z,1.75
2022-08-19T03:44:17.781Z,1.30
2022-08-19T03:46:47.697Z,1.33
2022-08-19T03:49:16.075Z,1.58
2022-08-19T03:51:47.320Z,1.20
2022-08-19T03:54:17.222Z,1.15
2022-08-19T03:56:48.327Z,1.10
2022-08-19T03:59:21.339Z,0.98
2022-08-19T04:01:49.497Z,1.20
2022-08-19T04:04:17.672Z,1.40
2022-08-19T04:06:48.864Z,1.20
2022-08-19T04:09:17.565Z,1.17
2022-08-19T04:11:49.365Z,1.38
2022-08-19T04:14:21.579Z,1.35
2022-08-19T04:16:50.745Z,1.20
2022-08-19T04:19:19.926Z,1.10
2022-08-19T04:21:50.874Z,1.10
2022-08-19T04:24:19.979Z,1.20
2022-08-19T04:26:48.923Z,1.30
2022-08-19T04:29:22.974Z,1.15
2022-08-19T04:31:51.612Z,1.00
2022-08-19T04:34:23.504Z,1.10
2022-08-19T04:36:53.196Z,1.40
2022-08-19T04:39:24.105Z,1.00
2022-08-19T04:42:09.445Z,1.10
2022-08-19T04:44:46.374Z,1.10
2022-08-19T04:47:14.704Z,1.20
2022-08-19T04:49:42.846Z,1.52
2022-08-19T04:52:10.982Z,1.27
2022-08-19T04:54:39.492Z,1.27
2022-08-19T04:57:11.092Z,1.00
2022-08-19T04:59:41.278Z,1.20
2022-08-19T05:02:11.527Z,1.23
2022-08-19T05:04:40.692Z,1.15
2022-08-19T05:07:10.824Z,1.08
2022-08-19T05:09:57.969Z,1.00
2022-08-19T05:12:28.936Z,1.08
2022-08-19T05:14:59.909Z,1.00
2022-08-19T05:17:32.271Z,1.20
2022-08-19T05:20:19.214Z,1.10
2022-08-19T05:22:49.315Z,1.15
2022-08-19T05:25:20.745Z,1.20
2022-08-19T05:27:49.722Z,1.00
2022-08-19T05:30:24.380Z,1.05
2022-08-19T05:33:09.127Z,0.93
2022-08-19T05:35:38.577Z,2.03
2022-08-19T05:38:08.196Z,4.68
2022-08-19T05:40:36.987Z,5.20
2022-08-19T05:43:05.561Z,4.75
2022-08-19T05:45:39.527Z,4.55
2022-08-19T05:48:07.851Z,4.20
2022-08-19T05:50:38.428Z,4.18
2022-08-19T05:53:06.950Z,2.97
2022-08-19T05:55:35.383Z,2.38
2022-08-19T05:58:03.792Z,2.78
2022-08-19T06:00:32.142Z,2.20
2022-08-19T06:03:12.507Z,2.47
2022-08-19T06:05:49.740Z,2.35
2022-08-19T06:08:33.592Z,2.40
2022-08-19T06:11:15.983Z,2.70
2022-08-19T06:13:44.388Z,2.35
2022-08-19T06:16:12.615Z,2.60
2022-08-19T06:18:42.127Z,2.35
2022-08-19T06:21:10.318Z,2.13
2022-08-19T06:23:38.791Z,2.92
2022-08-19T06:26:07.112Z,2.67
2022-08-19T06:28:35.225Z,2.58
2022-08-19T06:31:08.955Z,2.00
2022-08-19T06:33:37.125Z,2.28
2022-08-19T06:36:07.101Z,2.28
2022-08-19T06:38:35.471Z,2.20
2022-08-19T06:41:07.850Z,2.55
2022-08-19T06:43:38.117Z,2.33
2022-08-19T06:46:14.606Z,2.55
2022-08-19T06:48:45.380Z,2.15
2022-08-19T06:51:19.620Z,2.35
2022-08-19T06:53:48.265Z,2.28
2022-08-19T06:56:18.333Z,2.25
2022-08-19T06:58:47.560Z,1.90
2022-08-19T07:01:15.848Z,2.45
2022-08-19T07:03:44.069Z,2.05
2022-08-19T07:06:43.287Z,1.83
2022-08-19T07:09:07.611Z,2.13
2022-08-19T07:11:36.045Z,2.00
2022-08-19T07:14:05.170Z,2.15
2022-08-19T07:16:33.297Z,2.22
2022-08-19T07:19:11.598Z,2.00
2022-08-19T07:21:45.795Z,1.80
2022-08-19T07:24:14.345Z,1.85
2022-08-19T07:26:44.690Z,1.60
2022-08-19T07:29:13.900Z,1.83
2022-08-19T07:31:43.586Z,2.10
2022-08-19T07:34:14.374Z,1.67
2022-08-19T07:39:16.232Z,1.85
2022-08-19T07:41:45.828Z,1.90
2022-08-19T07:44:15.331Z,2.10
2022-08-19T07:46:48.268Z,1.75
2022-08-19T07:49:20.105Z,1.60
2022-08-19T07:51:50.344Z,1.93
2022-08-19T07:54:21.423Z,1.58
2022-08-19T07:56:50.495Z,1.85
2022-08-19T07:59:21.474Z,1.67
2022-08-19T08:01:51.134Z,1.70
2022-08-19T08:04:38.095Z,2.20
2022-08-19T08:07:24.052Z,1.73
2022-08-19T08:12:34.796Z,1.60
2022-08-19T08:15:08.880Z,1.58
2022-08-19T08:17:51.508Z,1.88
2022-08-19T08:20:21.375Z,1.70
2022-08-19T08:23:07.761Z,1.88
2022-08-19T08:25:38.803Z,1.92
2022-08-19T08:28:11.372Z,1.77
2022-08-19T08:30:48.415Z,1.52
2022-08-19T08:33:30.224Z,1.80
2022-08-19T08:36:03.990Z,1.60
2022-08-19T08:38:38.727Z,1.70
2022-08-19T08:41:20.039Z,1.67
2022-08-19T08:43:50.181Z,1.70
2022-08-19T08:46:30.924Z,1.90
2022-08-19T08:49:08.385Z,1.92
2022-08-19T08:54:16.864Z,1.77
2022-08-19T08:59:21.524Z,1.23
2022-08-19T09:01:49.992Z,1.75
2022-08-19T09:04:18.589Z,1.48
2022-08-19T09:06:56.968Z,1.73
2022-08-19T09:09:33.303Z,2.05
2022-08-19T09:12:13.082Z,1.50
2022-08-19T09:14:52.026Z,1.50
2022-08-19T09:17:29.128Z,1.30
2022-08-19T09:20:01.933Z,1.50
2022-08-19T09:22:30.105Z,1.48
2022-08-19T09:24:58.579Z,1.45
2022-08-19T09:27:42.296Z,1.17
2022-08-19T09:30:14.637Z,1.30
2022-08-19T09:32:44.491Z,1.20
2022-08-19T09:35:13.580Z,1.25
2022-08-19T09:37:43.196Z,1.48
2022-08-19T09:40:13.301Z,1.40
2022-08-19T09:42:49.602Z,1.27
2022-08-19T09:45:22.184Z,1.15
2022-08-19T09:47:52.246Z,1.00
2022-08-19T09:50:23.754Z,1.40
2022-08-19T09:52:54.072Z,1.08
2022-08-19T09:55:31.784Z,1.23
2022-08-19T09:58:02.835Z,1.30
2022-08-19T10:00:31.998Z,1.10
2022-08-19T10:03:00.999Z,1.05
2022-08-19T10:05:48.422Z,1.13
2022-08-19T10:08:18.051Z,1.10
2022-08-19T10:10:47.302Z,1.30
2022-08-19T10:13:22.904Z,1.23
2022-08-19T10:15:52.144Z,1.00
2022-08-19T10:18:22.557Z,0.90
2022-08-19T10:20:52.814Z,1.55
2022-08-19T10:23:22.329Z,1.27
2022-08-19T10:25:50.896Z,0.95
2022-08-19T10:28:20.484Z,0.82
2022-08-19T10:30:49.097Z,0.63
2022-08-19T10:33:36.530Z,0.60
2022-08-19T10:36:08.721Z,0.65
2022-08-19T10:38:37.172Z,0.70
2022-08-19T10:41:14.230Z,0.70
2022-08-19T10:43:45.982Z,0.70
2022-08-19T10:46:17.007Z,0.70
2022-08-19T10:48:45.853Z,0.68
2022-08-19T10:51:34.251Z,0.50
2022-08-19T10:54:03.207Z,0.73
2022-08-19T10:57:01.902Z,0.50
2022-08-19T10:59:35.991Z,0.60
2022-08-19T11:02:07.063Z,0.77
2022-08-19T11:04:35.872Z,0.40
2022-08-19T11:07:04.331Z,0.52
2022-08-19T11:09:34.303Z,0.60
2022-08-19T11:12:04.813Z,0.40
2022-08-19T11:14:35.549Z,0.70
2022-08-19T11:17:05.024Z,0.88
2022-08-19T11:19:34.212Z,0.60
2022-08-19T11:22:03.962Z,1.23
2022-08-19T11:24:33.745Z,0.50
2022-08-19T11:27:07.550Z,0.75
2022-08-19T11:29:39.521Z,0.45
2022-08-19T11:32:09.881Z,0.35
2022-08-19T11:34:38.510Z,0.60
2022-08-19T11:37:07.472Z,0.73
2022-08-19T11:39:38.041Z,0.52
2022-08-19T11:44:57.809Z,0.50
2022-08-19T11:47:27.190Z,0.90
2022-08-19T11:49:55.519Z,0.43
2022-08-19T11:52:23.689Z,0.60
2022-08-19T11:54:51.831Z,0.50
2022-08-19T11:57:20.748Z,0.32
2022-08-19T11:59:52.280Z,0.50
2022-08-19T12:02:22.662Z,0.40
2022-08-19T12:04:50.989Z,0.40
2022-08-19T12:07:19.352Z,0.60
2022-08-19T12:09:48.590Z,0.47
2022-08-19T12:12:17.502Z,0.60
2022-08-19T12:14:47.405Z,0.80
2022-08-19T12:17:15.540Z,0.50
2022-08-19T12:19:45.436Z,0.50
2022-08-19T12:22:13.548Z,0.57
2022-08-19T12:24:42.228Z,0.43
2022-08-19T12:27:12.958Z,0.45
2022-08-19T12:29:42.440Z,0.93
2022-08-19T12:32:12.147Z,0.60
2022-08-19T12:34:41.129Z,0.50
2022-08-19T12:37:11.924Z,0.55
2022-08-19T12:39:42.847Z,0.55
2022-08-19T12:42:11.838Z,0.30
2022-08-19T12:44:41.772Z,0.40
2022-08-19T12:47:14.655Z,0.60
2022-08-19T12:49:54.568Z,0.50
2022-08-19T12:52:25.771Z,0.57
2022-08-19T12:54:55.314Z,0.45
2022-08-19T12:57:31.508Z,0.50
2022-08-19T13:00:01.253Z,0.52
2022-08-19T13:02:29.660Z,0.40
2022-08-19T13:04:59.516Z,0.47
2022-08-19T13:07:29.208Z,0.40
2022-08-19T13:10:00.159Z,0.50
2022-08-19T13:12:28.546Z,0.70
2022-08-19T13:15:00.199Z,0.60
2022-08-19T13:17:29.061Z,0.52
2022-08-19T13:19:57.208Z,0.50
2022-08-19T13:22:26.002Z,0.63
2022-08-19T13:24:55.676Z,0.50
2022-08-19T13:27:23.781Z,0.60
2022-08-19T13:30:09.440Z,0.70
2022-08-19T13:32:54.787Z,0.43
2022-08-19T13:35:22.988Z,0.55
2022-08-19T13:37:51.343Z,0.52
2022-08-19T13:40:24.748Z,0.50
2022-08-19T13:42:54.885Z,0.73
2022-08-19T13:45:25.313Z,0.57
2022-08-19T13:47:59.177Z,0.60
2022-08-19T13:50:29.956Z,1.17
2022-08-19T13:52:58.515Z,0.40
2022-08-19T13:55:28.789Z,0.50
2022-08-19T13:57:58.651Z,0.70
2022-08-19T14:00:28.733Z,0.47
2022-08-19T14:02:58.742Z,0.47
2022-08-19T14:05:28.415Z,0.50
2022-08-19T14:07:57.062Z,0.40
2022-08-19T14:10:27.663Z,0.47
2022-08-19T14:15:25.155Z,0.40
2022-08-19T14:17:53.580Z,0.30
2022-08-19T14:20:22.099Z,0.60
2022-08-19T14:22:54.933Z,0.32
2022-08-19T14:25:25.091Z,0.60
2022-08-19T14:27:54.748Z,0.40
2022-08-19T14:30:27.836Z,0.60
2022-08-19T14:32:56.266Z,0.50
2022-08-19T14:35:24.745Z,0.65
2022-08-19T14:37:56.346Z,0.50
2022-08-19T14:40:27.610Z,0.50
2022-08-19T14:43:00.148Z,0.40
2022-08-19T14:45:30.508Z,0.50
2022-08-19T14:48:00.301Z,0.90
2022-08-19T14:50:29.096Z,0.50
2022-08-19T14:53:03.597Z,0.70
2022-08-19T14:55:43.637Z,0.30
2022-08-19T14:58:29.527Z,0.60
2022-08-19T15:01:00.725Z,0.60
2022-08-19T15:03:29.653Z,0.40
2022-08-19T15:05:59.047Z,0.50
2022-08-19T15:08:27.678Z,0.80
2022-08-19T15:10:56.418Z,0.40
2022-08-19T15:13:27.107Z,0.70
2022-08-19T15:18:23.612Z,0.68
2022-08-19T15:20:52.643Z,0.50
2022-08-19T15:23:21.788Z,0.50
2022-08-19T15:25:52.989Z,0.60
2022-08-19T15:28:21.193Z,0.60
2022-08-19T15:30:51.002Z,0.57
2022-08-19T15:33:21.016Z,0.57
2022-08-19T15:35:51.549Z,0.60
2022-08-19T15:38:22.363Z,0.60
2022-08-19T15:40:51.600Z,0.55
2022-08-19T15:43:22.164Z,0.60
2022-08-19T15:45:51.715Z,0.63
2022-08-19T15:48:19.848Z,0.50
2022-08-19T15:50:48.065Z,1.00
2022-08-19T15:53:17.168Z,0.50
2022-08-19T15:55:48.531Z,0.60
2022-08-19T15:58:34.486Z,0.60
2022-08-19T16:01:24.134Z,0.55
2022-08-19T16:04:14.545Z,0.88
2022-08-19T16:06:46.015Z,0.60
2022-08-19T16:11:45.927Z,0.50
2022-08-19T16:14:14.992Z,0.70
2022-08-19T16:16:46.746Z,0.75
2022-08-19T16:19:17.446Z,0.60
2022-08-19T16:21:46.567Z,0.60
2022-08-19T16:24:17.440Z,0.40
2022-08-19T16:26:46.966Z,0.60
2022-08-19T16:29:33.943Z,0.70
2022-08-19T16:32:07.201Z,0.60
2022-08-19T16:34:35.402Z,0.55
2022-08-19T16:37:03.578Z,0.90
2022-08-19T16:39:31.787Z,0.60
2022-08-19T16:42:00.340Z,1.00
2022-08-19T16:44:29.572Z,0.77
2022-08-19T16:46:59.571Z,0.52
2022-08-19T16:49:54.130Z,0.60
2022-08-19T16:52:19.201Z,0.52
2022-08-19T16:54:47.894Z,0.95
2022-08-19T16:57:16.879Z,0.52
2022-08-19T16:59:48.445Z,0.60
2022-08-19T17:02:18.187Z,0.60
2022-08-19T17:04:57.991Z,0.60
2022-08-19T17:09:55.837Z,1.20
2022-08-19T17:12:30.197Z,1.20
2022-08-19T17:15:00.682Z,0.52
2022-08-19T17:17:29.720Z,0.50
2022-08-19T17:20:00.337Z,0.77
2022-08-19T17:22:28.964Z,0.70
2022-08-19T17:24:58.037Z,1.00
2022-08-19T17:27:32.501Z,1.10
2022-08-19T17:30:02.645Z,1.27
2022-08-19T17:32:34.331Z,1.00
2022-08-19T17:35:04.740Z,1.08
2022-08-19T17:37:34.952Z,1.45
2022-08-19T17:40:03.432Z,1.65
2022-08-19T17:42:31.974Z,1.25
2022-08-19T17:45:00.159Z,1.65
2022-08-19T17:47:29.013Z,1.75
2022-08-19T17:49:57.596Z,1.38
2022-08-19T17:52:27.278Z,1.63
2022-08-19T17:54:56.010Z,1.40
2022-08-19T17:57:24.385Z,1.83
2022-08-19T17:59:52.577Z,1.60
2022-08-19T18:02:22.006Z,1.60
2022-08-19T18:04:50.583Z,1.73
2022-08-19T18:07:21.515Z,1.52
2022-08-19T18:09:52.786Z,1.60
2022-08-19T18:12:26.638Z,1.50
2022-08-19T18:14:54.798Z,1.88
2022-08-19T18:17:24.437Z,1.63
2022-08-19T18:19:52.695Z,1.45
2022-08-19T18:22:28.651Z,1.38
2022-08-19T18:24:59.458Z,1.60
2022-08-19T18:27:28.788Z,1.77
2022-08-19T18:29:59.432Z,1.75
2022-08-19T18:32:29.801Z,1.90
2022-08-19T18:34:58.525Z,1.30
2022-08-19T18:37:27.411Z,1.83
2022-08-19T18:40:14.941Z,1.60
2022-08-19T18:43:01.752Z,1.45
2022-08-19T18:45:47.350Z,1.55
2022-08-19T18:48:32.892Z,1.60
2022-08-19T18:51:02.334Z,1.88
2022-08-19T18:53:32.282Z,1.60
2022-08-19T18:56:02.090Z,1.33
2022-08-19T18:58:34.216Z,1.47
2022-08-19T19:01:11.453Z,1.58
2022-08-19T19:03:41.574Z,1.40
2022-08-19T19:06:09.885Z,2.13
2022-08-19T19:08:38.801Z,1.38
2022-08-19T19:11:08.868Z,1.60
2022-08-19T19:13:39.748Z,1.60
2022-08-19T19:16:10.071Z,1.50
2022-08-19T19:18:38.318Z,1.58
2022-08-19T19:21:07.786Z,1.83
2022-08-19T19:23:40.593Z,1.73
2022-08-19T19:26:10.827Z,1.55
2022-08-19T19:28:44.193Z,1.70
2022-08-19T19:31:14.361Z,1.67
2022-08-19T19:33:43.236Z,1.70
2022-08-19T19:36:12.244Z,1.60
2022-08-19T19:38:48.026Z,2.13
2022-08-19T19:41:23.354Z,1.92
2022-08-19T19:44:09.910Z,1.70
2022-08-19T19:46:43.484Z,1.63
2022-08-19T19:49:12.937Z,1.80
2022-08-19T19:51:41.579Z,1.60
2022-08-19T19:54:13.859Z,1.48
2022-08-19T19:56:45.076Z,1.60
2022-08-19T19:59:13.546Z,1.42
2022-08-19T20:01:46.899Z,1.40
2022-08-19T20:04:15.730Z,1.90
2022-08-19T20:06:44.195Z,1.73
2022-08-19T20:09:12.231Z,1.40
2022-08-19T20:11:45.977Z,1.70
2022-08-19T20:14:17.095Z,1.58
2022-08-19T20:16:46.320Z,1.63
2022-08-19T20:19:16.911Z,1.70
2022-08-19T20:21:49.604Z,1.30
2022-08-19T20:24:22.517Z,1.73
2022-08-19T20:26:53.578Z,1.35
2022-08-19T20:29:38.283Z,1.60
2022-08-19T20:32:08.599Z,1.33
2022-08-19T20:34:37.234Z,1.63
2022-08-19T20:37:05.498Z,1.50
2022-08-19T20:39:33.671Z,1.25
2022-08-19T20:42:03.171Z,1.50
2022-08-19T20:44:31.328Z,1.80
2022-08-19T20:47:03.356Z,1.38
2022-08-19T20:49:32.128Z,1.67
2022-08-19T20:52:00.524Z,1.60
2022-08-19T20:54:28.949Z,1.52
2022-08-19T20:56:57.476Z,2.10
2022-08-19T20:59:27.036Z,1.67
2022-08-19T21:01:55.565Z,1.48
2022-08-19T21:04:23.715Z,1.45
2022-08-19T21:06:52.235Z,1.40
2022-08-19T21:09:20.486Z,1.50
2022-08-19T21:11:49.007Z,1.13
2022-08-19T21:14:19.031Z,1.20
2022-08-19T21:16:49.925Z,1.50
2022-08-19T21:19:20.921Z,1.63
2022-08-19T21:21:52.127Z,1.40
2022-08-19T21:24:20.328Z,1.60
2022-08-19T21:26:51.331Z,1.40
2022-08-19T21:29:19.837Z,1.55
2022-08-19T21:31:50.227Z,1.38
2022-08-19T21:34:18.519Z,1.55
2022-08-19T21:36:47.833Z,1.70
2022-08-19T21:39:15.936Z,1.40
2022-08-19T21:41:44.068Z,2.75
2022-08-19T21:44:12.234Z,1.40
2022-08-19T21:46:40.376Z,1.27
2022-08-19T21:49:09.851Z,1.25
2022-08-19T21:51:38.402Z,1.55
2022-08-19T21:54:06.627Z,1.13
2022-08-19T21:56:35.055Z,1.50
2022-08-19T21:59:03.227Z,1.42
2022-08-19T22:01:31.325Z,1.27
2022-08-19T22:03:59.505Z,1.20
2022-08-19T22:06:29.094Z,1.17
2022-08-19T22:08:57.431Z,1.35
2022-08-19T22:11:26.515Z,1.60
2022-08-19T22:13:56.463Z,1.52
2022-08-19T22:16:25.326Z,1.23
2022-08-19T22:18:53.697Z,1.20
2022-08-19T22:21:37.415Z,1.40
2022-08-19T22:24:10.894Z,1.30
2022-08-19T22:26:39.008Z,1.35
2022-08-19T22:29:07.540Z,1.20
2022-08-19T22:31:37.445Z,1.27
2022-08-19T22:34:06.192Z,1.73
2022-08-19T22:36:35.459Z,1.30
2022-08-19T22:39:04.182Z,1.30
2022-08-19T22:41:34.011Z,1.20
2022-08-19T22:44:02.227Z,1.47
2022-08-19T22:46:34.309Z,1.40
2022-08-19T22:49:02.506Z,1.30
2022-08-19T22:51:48.769Z,1.10
2022-08-19T22:54:17.352Z,1.25
2022-08-19T22:56:47.094Z,1.48
2022-08-19T22:59:15.260Z,1.38
2022-08-19T23:01:43.429Z,1.42
2022-08-19T23:04:11.876Z,1.40
2022-08-19T23:06:42.175Z,1.23
2022-08-19T23:09:16.923Z,1.40
2022-08-19T23:11:47.488Z,1.33
2022-08-19T23:14:17.546Z,1.40
2022-08-19T23:16:50.744Z,1.23
2022-08-19T23:19:20.244Z,1.27
2022-08-19T23:21:48.834Z,1.30
2022-08-19T23:24:16.967Z,1.15
2022-08-19T23:27:00.393Z,1.40
2022-08-19T23:29:45.876Z,1.40
2022-08-19T23:32:17.058Z,1.40
2022-08-19T23:34:45.389Z,1.23
2022-08-19T23:37:13.752Z,1.13
2022-08-19T23:39:42.658Z,1.20
2022-08-19T23:42:13.643Z,1.20
2022-08-19T23:44:52.052Z,1.27
2022-08-19T23:47:21.563Z,1.15
2022-08-19T23:49:50.596Z,1.23
2022-08-19T23:52:18.759Z,1.17
2022-08-19T23:54:46.894Z,0.90
2022-08-19T23:57:16.584Z,0.90
2022-08-19T23:59:46.117Z,1.40
